sensor_id;sensor_type;location;lat;lon;timestamp;P1;durP1;ratioP1;P2;durP2;ratioP2
26908;SDS011;14477;51.038;4.588;2024-01-10T00:01:33;3.67;;;1.80;;
26908;SDS011;14477;51.038;4.588;2024-01-10T00:03:59;3.67;;;1.98;;
26908;SDS011;14477;51.038;4.588;2024-01-10T00:06:25;4.50;;;2.00;;
26908;SDS011;14477;51.038;4.588;2024-01-10T00:08:51;6.27;;;2.60;;
26908;SDS011;14477;51.038;4.588;2024-01-10T00:11:17;4.22;;;1.95;;
26908;SDS011;14477;51.038;4.588;2024-01-10T00:13:43;4.63;;;2.10;;
26908;SDS011;14477;51.038;4.588;2024-01-10T00:16:11;3.07;;;1.73;;
26908;SDS011;14477;51.038;4.588;2024-01-10T00:18:38;4.53;;;2.20;;
26908;SDS011;14477;51.038;4.588;2024-01-10T00:21:05;3.67;;;1.90;;
26908;SDS011;14477;51.038;4.588;2024-01-10T00:23:32;3.00;;;1.40;;
26908;SDS011;14477;51.038;4.588;2024-01-10T00:25:57;3.90;;;2.03;;
26908;SDS011;14477;51.038;4.588;2024-01-10T00:28:23;2.85;;;1.65;;
26908;SDS011;14477;51.038;4.588;2024-01-10T00:30:49;3.55;;;2.13;;
26908;SDS011;14477;51.038;4.588;2024-01-10T00:33:15;3.53;;;1.83;;
26908;SDS011;14477;51.038;4.588;2024-01-10T00:35:41;4.07;;;1.77;;
26908;SDS011;14477;51.038;4.588;2024-01-10T00:38:07;3.77;;;1.83;;
26908;SDS011;14477;51.038;4.588;2024-01-10T00:40:33;4.60;;;2.05;;
26908;SDS011;14477;51.038;4.588;2024-01-10T00:42:59;3.88;;;1.95;;
26908;SDS011;14477;51.038;4.588;2024-01-10T00:45:25;4.70;;;2.03;;
26908;SDS011;14477;51.038;4.588;2024-01-10T00:47:50;3.53;;;1.90;;
26908;SDS011;14477;51.038;4.588;2024-01-10T00:50:16;2.77;;;1.40;;
26908;SDS011;14477;51.038;4.588;2024-01-10T00:52:43;4.20;;;1.90;;
26908;SDS011;14477;51.038;4.588;2024-01-10T00:55:10;4.38;;;2.10;;
26908;SDS011;14477;51.038;4.588;2024-01-10T00:57:35;3.97;;;2.20;;
26908;SDS011;14477;51.038;4.588;2024-01-10T01:00:06;4.03;;;2.05;;
26908;SDS011;14477;51.038;4.588;2024-01-10T01:02:34;5.30;;;2.13;;
26908;SDS011;14477;51.038;4.588;2024-01-10T01:05:00;2.63;;;1.23;;
26908;SDS011;14477;51.038;4.588;2024-01-10T01:07:26;4.38;;;1.95;;
26908;SDS011;14477;51.038;4.588;2024-01-10T01:09:52;4.33;;;2.00;;
26908;SDS011;14477;51.038;4.588;2024-01-10T01:12:18;4.60;;;2.03;;
26908;SDS011;14477;51.038;4.588;2024-01-10T01:14:44;3.37;;;1.73;;
26908;SDS011;14477;51.038;4.588;2024-01-10T01:17:09;4.25;;;1.90;;
26908;SDS011;14477;51.038;4.588;2024-01-10T01:19:35;3.27;;;1.70;;
26908;SDS011;14477;51.038;4.588;2024-01-10T01:22:01;3.60;;;1.95;;
26908;SDS011;14477;51.038;4.588;2024-01-10T01:24:27;3.25;;;1.67;;
26908;SDS011;14477;51.038;4.588;2024-01-10T01:26:52;2.70;;;1.60;;
26908;SDS011;14477;51.038;4.588;2024-01-10T01:29:18;3.95;;;1.73;;
26908;SDS011;14477;51.038;4.588;2024-01-10T01:31:45;4.43;;;1.83;;
26908;SDS011;14477;51.038;4.588;2024-01-10T01:34:11;3.33;;;1.52;;
26908;SDS011;14477;51.038;4.588;2024-01-10T01:36:37;3.72;;;1.73;;
26908;SDS011;14477;51.038;4.588;2024-01-10T01:39:02;3.50;;;1.50;;
26908;SDS011;14477;51.038;4.588;2024-01-10T01:41:28;3.47;;;1.80;;
26908;SDS011;14477;51.038;4.588;2024-01-10T01:43:54;3.20;;;1.80;;
26908;SDS011;14477;51.038;4.588;2024-01-10T01:46:20;2.97;;;1.67;;
26908;SDS011;14477;51.038;4.588;2024-01-10T01:48:46;5.13;;;1.93;;
26908;SDS011;14477;51.038;4.588;2024-01-10T01:51:12;2.78;;;1.60;;
26908;SDS011;14477;51.038;4.588;2024-01-10T01:53:40;3.50;;;1.77;;
26908;SDS011;14477;51.038;4.588;2024-01-10T01:56:08;3.53;;;2.00;;
26908;SDS011;14477;51.038;4.588;2024-01-10T01:58:34;3.45;;;1.92;;
26908;SDS011;14477;51.038;4.588;2024-01-10T02:01:02;3.50;;;1.80;;
26908;SDS011;14477;51.038;4.588;2024-01-10T02:03:33;3.40;;;1.75;;
26908;SDS011;14477;51.038;4.588;2024-01-10T02:06:00;3.33;;;2.10;;
26908;SDS011;14477;51.038;4.588;2024-01-10T02:08:29;4.18;;;1.85;;
26908;SDS011;14477;51.038;4.588;2024-01-10T02:10:57;2.75;;;1.60;;
26908;SDS011;14477;51.038;4.588;2024-01-10T02:13:24;3.60;;;1.47;;
26908;SDS011;14477;51.038;4.588;2024-01-10T02:15:49;3.47;;;1.50;;
26908;SDS011;14477;51.038;4.588;2024-01-10T02:18:16;3.13;;;1.48;;
26908;SDS011;14477;51.038;4.588;2024-01-10T02:20:45;2.80;;;1.63;;
26908;SDS011;14477;51.038;4.588;2024-01-10T02:23:11;2.80;;;1.50;;
26908;SDS011;14477;51.038;4.588;2024-01-10T02:25:38;4.70;;;1.80;;
26908;SDS011;14477;51.038;4.588;2024-01-10T02:28:05;3.55;;;1.60;;
26908;SDS011;14477;51.038;4.588;2024-01-10T02:30:30;3.53;;;1.73;;
26908;SDS011;14477;51.038;4.588;2024-01-10T02:32:56;4.00;;;1.60;;
26908;SDS011;14477;51.038;4.588;2024-01-10T02:35:22;3.87;;;1.80;;
26908;SDS011;14477;51.038;4.588;2024-01-10T02:37:48;2.42;;;1.40;;
26908;SDS011;14477;51.038;4.588;2024-01-10T02:40:17;3.40;;;1.80;;
26908;SDS011;14477;51.038;4.588;2024-01-10T02:42:43;2.43;;;1.20;;
26908;SDS011;14477;51.038;4.588;2024-01-10T02:45:09;2.80;;;1.50;;
26908;SDS011;14477;51.038;4.588;2024-01-10T02:47:35;2.42;;;1.45;;
26908;SDS011;14477;51.038;4.588;2024-01-10T02:50:02;2.80;;;1.40;;
26908;SDS011;14477;51.038;4.588;2024-01-10T02:52:29;3.00;;;1.50;;
26908;SDS011;14477;51.038;4.588;2024-01-10T02:54:54;3.05;;;1.60;;
26908;SDS011;14477;51.038;4.588;2024-01-10T02:57:20;3.17;;;1.80;;
26908;SDS011;14477;51.038;4.588;2024-01-10T02:59:46;2.50;;;1.30;;
26908;SDS011;14477;51.038;4.588;2024-01-10T03:02:11;1.90;;;1.37;;
26908;SDS011;14477;51.038;4.588;2024-01-10T03:04:37;2.50;;;1.63;;
26908;SDS011;14477;51.038;4.588;2024-01-10T03:07:03;3.80;;;1.60;;
26908;SDS011;14477;51.038;4.588;2024-01-10T03:09:28;2.43;;;1.50;;
26908;SDS011;14477;51.038;4.588;2024-01-10T03:11:54;3.10;;;1.60;;
26908;SDS011;14477;51.038;4.588;2024-01-10T03:14:20;3.17;;;1.80;;
26908;SDS011;14477;51.038;4.588;2024-01-10T03:16:47;3.57;;;1.67;;
26908;SDS011;14477;51.038;4.588;2024-01-10T03:19:13;2.38;;;1.45;;
26908;SDS011;14477;51.038;4.588;2024-01-10T03:21:39;3.20;;;1.20;;
26908;SDS011;14477;51.038;4.588;2024-01-10T03:24:05;2.30;;;1.20;;
26908;SDS011;14477;51.038;4.588;2024-01-10T03:26:30;3.73;;;1.50;;
26908;SDS011;14477;51.038;4.588;2024-01-10T03:28:56;3.40;;;1.33;;
26908;SDS011;14477;51.038;4.588;2024-01-10T03:31:22;2.83;;;1.50;;
26908;SDS011;14477;51.038;4.588;2024-01-10T03:33:48;3.03;;;1.53;;
26908;SDS011;14477;51.038;4.588;2024-01-10T03:36:16;2.63;;;1.50;;
26908;SDS011;14477;51.038;4.588;2024-01-10T03:38:42;2.67;;;1.55;;
26908;SDS011;14477;51.038;4.588;2024-01-10T03:41:15;3.17;;;1.58;;
26908;SDS011;14477;51.038;4.588;2024-01-10T03:43:42;2.65;;;1.58;;
26908;SDS011;14477;51.038;4.588;2024-01-10T03:46:11;2.97;;;1.43;;
26908;SDS011;14477;51.038;4.588;2024-01-10T03:48:37;3.15;;;1.40;;
26908;SDS011;14477;51.038;4.588;2024-01-10T03:51:07;2.13;;;1.08;;
26908;SDS011;14477;51.038;4.588;2024-01-10T03:53:34;3.42;;;1.80;;
26908;SDS011;14477;51.038;4.588;2024-01-10T03:55:59;4.27;;;1.70;;
26908;SDS011;14477;51.038;4.588;2024-01-10T03:58:28;3.10;;;1.60;;
26908;SDS011;14477;51.038;4.588;2024-01-10T04:00:54;3.15;;;1.48;;
26908;SDS011;14477;51.038;4.588;2024-01-10T04:03:20;3.20;;;1.63;;
26908;SDS011;14477;51.038;4.588;2024-01-10T04:05:45;2.67;;;1.25;;
26908;SDS011;14477;51.038;4.588;2024-01-10T04:08:11;2.30;;;1.43;;
26908;SDS011;14477;51.038;4.588;2024-01-10T04:10:37;4.10;;;1.90;;
26908;SDS011;14477;51.038;4.588;2024-01-10T04:13:02;2.45;;;1.38;;
26908;SDS011;14477;51.038;4.588;2024-01-10T04:15:28;2.87;;;1.53;;
26908;SDS011;14477;51.038;4.588;2024-01-10T04:17:54;2.60;;;1.60;;
26908;SDS011;14477;51.038;4.588;2024-01-10T04:20:20;2.80;;;1.40;;
26908;SDS011;14477;51.038;4.588;2024-01-10T04:22:45;1.92;;;1.05;;
26908;SDS011;14477;51.038;4.588;2024-01-10T04:25:11;2.43;;;1.40;;
26908;SDS011;14477;51.038;4.588;2024-01-10T04:27:37;3.13;;;1.53;;
26908;SDS011;14477;51.038;4.588;2024-01-10T04:30:04;2.97;;;1.50;;
26908;SDS011;14477;51.038;4.588;2024-01-10T04:32:30;2.63;;;1.40;;
26908;SDS011;14477;51.038;4.588;2024-01-10T04:34:56;2.53;;;1.40;;
26908;SDS011;14477;51.038;4.588;2024-01-10T04:37:22;4.00;;;1.60;;
26908;SDS011;14477;51.038;4.588;2024-01-10T04:39:47;3.40;;;2.00;;
26908;SDS011;14477;51.038;4.588;2024-01-10T04:42:13;3.15;;;1.65;;
26908;SDS011;14477;51.038;4.588;2024-01-10T04:44:40;3.58;;;1.60;;
26908;SDS011;14477;51.038;4.588;2024-01-10T04:47:07;4.30;;;1.53;;
26908;SDS011;14477;51.038;4.588;2024-01-10T04:49:32;3.47;;;1.42;;
26908;SDS011;14477;51.038;4.588;2024-01-10T04:51:58;3.55;;;1.30;;
26908;SDS011;14477;51.038;4.588;2024-01-10T04:54:24;3.77;;;1.50;;
26908;SDS011;14477;51.038;4.588;2024-01-10T04:56:50;3.90;;;1.73;;
26908;SDS011;14477;51.038;4.588;2024-01-10T04:59:15;3.57;;;2.10;;
26908;SDS011;14477;51.038;4.588;2024-01-10T05:01:41;3.13;;;1.70;;
26908;SDS011;14477;51.038;4.588;2024-01-10T05:04:07;3.60;;;1.75;;
26908;SDS011;14477;51.038;4.588;2024-01-10T05:06:33;2.70;;;1.47;;
26908;SDS011;14477;51.038;4.588;2024-01-10T05:08:58;3.17;;;1.60;;
26908;SDS011;14477;51.038;4.588;2024-01-10T05:11:25;3.17;;;1.67;;
26908;SDS011;14477;51.038;4.588;2024-01-10T05:13:51;5.05;;;1.80;;
26908;SDS011;14477;51.038;4.588;2024-01-10T05:16:17;2.90;;;1.50;;
26908;SDS011;14477;51.038;4.588;2024-01-10T05:18:43;2.08;;;1.20;;
26908;SDS011;14477;51.038;4.588;2024-01-10T05:21:09;2.05;;;1.23;;
26908;SDS011;14477;51.038;4.588;2024-01-10T05:23:35;3.65;;;1.73;;
26908;SDS011;14477;51.038;4.588;2024-01-10T05:26:01;3.25;;;1.60;;
26908;SDS011;14477;51.038;4.588;2024-01-10T05:28:27;3.33;;;1.40;;
26908;SDS011;14477;51.038;4.588;2024-01-10T05:30:53;2.42;;;1.30;;
26908;SDS011;14477;51.038;4.588;2024-01-10T05:33:19;3.67;;;1.80;;
26908;SDS011;14477;51.038;4.588;2024-01-10T05:35:45;4.78;;;1.90;;
26908;SDS011;14477;51.038;4.588;2024-01-10T05:38:11;3.60;;;1.65;;
26908;SDS011;14477;51.038;4.588;2024-01-10T05:40:37;3.65;;;1.75;;
26908;SDS011;14477;51.038;4.588;2024-01-10T05:43:03;2.43;;;1.40;;
26908;SDS011;14477;51.038;4.588;2024-01-10T05:45:28;3.25;;;1.55;;
26908;SDS011;14477;51.038;4.588;2024-01-10T05:47:54;3.75;;;1.50;;
26908;SDS011;14477;51.038;4.588;2024-01-10T05:50:21;2.50;;;1.55;;
26908;SDS011;14477;51.038;4.588;2024-01-10T05:52:47;3.47;;;1.50;;
26908;SDS011;14477;51.038;4.588;2024-01-10T05:55:13;3.15;;;1.67;;
26908;SDS011;14477;51.038;4.588;2024-01-10T05:57:39;2.50;;;1.27;;
26908;SDS011;14477;51.038;4.588;2024-01-10T06:00:05;3.10;;;1.50;;
26908;SDS011;14477;51.038;4.588;2024-01-10T06:02:38;3.53;;;1.42;;
26908;SDS011;14477;51.038;4.588;2024-01-10T06:05:07;5.80;;;1.83;;
26908;SDS011;14477;51.038;4.588;2024-01-10T06:07:37;3.63;;;1.70;;
26908;SDS011;14477;51.038;4.588;2024-01-10T06:10:03;4.53;;;1.60;;
26908;SDS011;14477;51.038;4.588;2024-01-10T06:12:30;3.10;;;1.73;;
26908;SDS011;14477;51.038;4.588;2024-01-10T06:14:55;3.42;;;1.58;;
26908;SDS011;14477;51.038;4.588;2024-01-10T06:17:22;5.83;;;1.50;;
26908;SDS011;14477;51.038;4.588;2024-01-10T06:19:48;2.42;;;1.40;;
26908;SDS011;14477;51.038;4.588;2024-01-10T06:22:14;2.83;;;1.80;;
26908;SDS011;14477;51.038;4.588;2024-01-10T06:24:39;4.03;;;2.07;;
26908;SDS011;14477;51.038;4.588;2024-01-10T06:27:08;3.78;;;1.65;;
26908;SDS011;14477;51.038;4.588;2024-01-10T06:29:34;3.08;;;1.80;;
26908;SDS011;14477;51.038;4.588;2024-01-10T06:32:00;2.83;;;1.40;;
26908;SDS011;14477;51.038;4.588;2024-01-10T06:34:26;3.53;;;1.77;;
26908;SDS011;14477;51.038;4.588;2024-01-10T06:36:52;2.33;;;1.45;;
26908;SDS011;14477;51.038;4.588;2024-01-10T06:39:18;2.50;;;1.40;;
26908;SDS011;14477;51.038;4.588;2024-01-10T06:41:48;3.30;;;1.50;;
26908;SDS011;14477;51.038;4.588;2024-01-10T06:44:14;3.10;;;1.60;;
26908;SDS011;14477;51.038;4.588;2024-01-10T06:46:43;2.65;;;1.48;;
26908;SDS011;14477;51.038;4.588;2024-01-10T06:49:09;2.90;;;1.40;;
26908;SDS011;14477;51.038;4.588;2024-01-10T06:51:35;2.78;;;1.52;;
26908;SDS011;14477;51.038;4.588;2024-01-10T06:54:00;3.00;;;1.55;;
26908;SDS011;14477;51.038;4.588;2024-01-10T06:56:29;2.65;;;1.48;;
26908;SDS011;14477;51.038;4.588;2024-01-10T06:58:56;4.28;;;1.73;;
26908;SDS011;14477;51.038;4.588;2024-01-10T07:01:22;3.47;;;1.10;;
26908;SDS011;14477;51.038;4.588;2024-01-10T07:03:48;3.67;;;1.92;;
26908;SDS011;14477;51.038;4.588;2024-01-10T07:06:14;3.97;;;1.92;;
26908;SDS011;14477;51.038;4.588;2024-01-10T07:08:40;5.73;;;2.47;;
26908;SDS011;14477;51.038;4.588;2024-01-10T07:11:15;3.47;;;1.58;;
26908;SDS011;14477;51.038;4.588;2024-01-10T07:13:42;3.30;;;1.60;;
26908;SDS011;14477;51.038;4.588;2024-01-10T07:16:08;4.35;;;2.10;;
26908;SDS011;14477;51.038;4.588;2024-01-10T07:18:34;3.25;;;1.45;;
26908;SDS011;14477;51.038;4.588;2024-01-10T07:21:00;3.97;;;1.87;;
26908;SDS011;14477;51.038;4.588;2024-01-10T07:23:26;3.15;;;1.63;;
26908;SDS011;14477;51.038;4.588;2024-01-10T07:25:52;3.53;;;1.77;;
26908;SDS011;14477;51.038;4.588;2024-01-10T07:28:18;3.67;;;1.98;;
26908;SDS011;14477;51.038;4.588;2024-01-10T07:30:44;6.38;;;2.00;;
26908;SDS011;14477;51.038;4.588;2024-01-10T07:33:11;4.40;;;1.52;;
26908;SDS011;14477;51.038;4.588;2024-01-10T07:35:37;4.43;;;1.88;;
26908;SDS011;14477;51.038;4.588;2024-01-10T07:38:04;3.07;;;1.57;;
26908;SDS011;14477;51.038;4.588;2024-01-10T07:40:32;3.08;;;1.48;;
26908;SDS011;14477;51.038;4.588;2024-01-10T07:42:58;2.47;;;1.30;;
26908;SDS011;14477;51.038;4.588;2024-01-10T07:45:24;3.37;;;1.83;;
26908;SDS011;14477;51.038;4.588;2024-01-10T07:47:50;3.20;;;1.50;;
26908;SDS011;14477;51.038;4.588;2024-01-10T07:50:16;3.35;;;1.65;;
26908;SDS011;14477;51.038;4.588;2024-01-10T07:52:42;2.77;;;1.60;;
26908;SDS011;14477;51.038;4.588;2024-01-10T07:55:09;3.20;;;1.92;;
26908;SDS011;14477;51.038;4.588;2024-01-10T07:57:35;3.80;;;1.80;;
26908;SDS011;14477;51.038;4.588;2024-01-10T08:00:05;4.25;;;1.90;;
26908;SDS011;14477;51.038;4.588;2024-01-10T08:02:34;5.80;;;1.90;;
26908;SDS011;14477;51.038;4.588;2024-01-10T08:05:01;6.45;;;2.65;;
26908;SDS011;14477;51.038;4.588;2024-01-10T08:07:31;5.65;;;2.50;;
26908;SDS011;14477;51.038;4.588;2024-01-10T08:10:04;5.18;;;2.10;;
26908;SDS011;14477;51.038;4.588;2024-01-10T08:12:34;4.67;;;2.17;;
26908;SDS011;14477;51.038;4.588;2024-01-10T08:15:00;3.70;;;1.95;;
26908;SDS011;14477;51.038;4.588;2024-01-10T08:17:26;3.30;;;1.88;;
26908;SDS011;14477;51.038;4.588;2024-01-10T08:19:52;4.53;;;2.20;;
26908;SDS011;14477;51.038;4.588;2024-01-10T08:22:19;5.50;;;2.20;;
26908;SDS011;14477;51.038;4.588;2024-01-10T08:24:45;3.70;;;1.95;;
26908;SDS011;14477;51.038;4.588;2024-01-10T08:27:11;2.90;;;1.80;;
26908;SDS011;14477;51.038;4.588;2024-01-10T08:29:37;6.82;;;2.28;;
26908;SDS011;14477;51.038;4.588;2024-01-10T08:32:03;4.80;;;2.17;;
26908;SDS011;14477;51.038;4.588;2024-01-10T08:34:30;4.50;;;2.17;;
26908;SDS011;14477;51.038;4.588;2024-01-10T08:36:56;5.45;;;2.70;;
26908;SDS011;14477;51.038;4.588;2024-01-10T08:39:21;5.95;;;2.50;;
26908;SDS011;14477;51.038;4.588;2024-01-10T08:41:49;6.70;;;2.77;;
26908;SDS011;14477;51.038;4.588;2024-01-10T08:44:15;5.15;;;2.10;;
26908;SDS011;14477;51.038;4.588;2024-01-10T08:46:41;10.10;;;3.67;;
26908;SDS011;14477;51.038;4.588;2024-01-10T08:49:06;5.80;;;3.30;;
26908;SDS011;14477;51.038;4.588;2024-01-10T08:51:32;4.28;;;2.15;;
26908;SDS011;14477;51.038;4.588;2024-01-10T08:53:58;5.47;;;2.70;;
26908;SDS011;14477;51.038;4.588;2024-01-10T08:56:24;5.60;;;2.83;;
26908;SDS011;14477;51.038;4.588;2024-01-10T08:58:51;5.50;;;2.60;;
26908;SDS011;14477;51.038;4.588;2024-01-10T09:01:17;5.60;;;3.37;;
26908;SDS011;14477;51.038;4.588;2024-01-10T09:03:44;6.00;;;3.03;;
26908;SDS011;14477;51.038;4.588;2024-01-10T09:06:09;5.22;;;2.63;;
26908;SDS011;14477;51.038;4.588;2024-01-10T09:08:35;6.30;;;3.67;;
26908;SDS011;14477;51.038;4.588;2024-01-10T09:11:02;5.72;;;3.13;;
26908;SDS011;14477;51.038;4.588;2024-01-10T09:13:28;6.40;;;3.47;;
26908;SDS011;14477;51.038;4.588;2024-01-10T09:15:54;5.00;;;2.50;;
26908;SDS011;14477;51.038;4.588;2024-01-10T09:18:19;7.80;;;3.50;;
26908;SDS011;14477;51.038;4.588;2024-01-10T09:20:45;5.03;;;2.70;;
26908;SDS011;14477;51.038;4.588;2024-01-10T09:23:13;5.13;;;2.77;;
26908;SDS011;14477;51.038;4.588;2024-01-10T09:25:39;6.13;;;3.17;;
26908;SDS011;14477;51.038;4.588;2024-01-10T09:28:05;5.72;;;2.50;;
26908;SDS011;14477;51.038;4.588;2024-01-10T09:30:31;7.70;;;3.13;;
26908;SDS011;14477;51.038;4.588;2024-01-10T09:32:56;6.30;;;2.73;;
26908;SDS011;14477;51.038;4.588;2024-01-10T09:35:22;6.32;;;2.75;;
26908;SDS011;14477;51.038;4.588;2024-01-10T09:37:48;6.53;;;2.67;;
26908;SDS011;14477;51.038;4.588;2024-01-10T09:40:15;5.53;;;2.58;;
26908;SDS011;14477;51.038;4.588;2024-01-10T09:42:43;6.38;;;3.00;;
26908;SDS011;14477;51.038;4.588;2024-01-10T09:45:09;6.72;;;3.22;;
26908;SDS011;14477;51.038;4.588;2024-01-10T09:47:38;8.02;;;3.42;;
26908;SDS011;14477;51.038;4.588;2024-01-10T09:50:05;7.13;;;3.00;;
26908;SDS011;14477;51.038;4.588;2024-01-10T09:52:34;7.80;;;3.70;;
26908;SDS011;14477;51.038;4.588;2024-01-10T09:55:05;6.78;;;3.33;;
26908;SDS011;14477;51.038;4.588;2024-01-10T09:57:33;8.10;;;3.65;;
26908;SDS011;14477;51.038;4.588;2024-01-10T10:00:01;7.10;;;3.95;;
26908;SDS011;14477;51.038;4.588;2024-01-10T10:02:30;7.07;;;3.50;;
26908;SDS011;14477;51.038;4.588;2024-01-10T10:05:02;6.97;;;3.58;;
26908;SDS011;14477;51.038;4.588;2024-01-10T10:07:29;7.97;;;3.90;;
26908;SDS011;14477;51.038;4.588;2024-01-10T10:09:55;7.88;;;3.88;;
26908;SDS011;14477;51.038;4.588;2024-01-10T10:12:40;7.55;;;3.92;;
26908;SDS011;14477;51.038;4.588;2024-01-10T10:15:16;7.20;;;3.87;;
26908;SDS011;14477;51.038;4.588;2024-01-10T10:17:44;5.80;;;3.20;;
26908;SDS011;14477;51.038;4.588;2024-01-10T10:20:14;7.18;;;3.60;;
26908;SDS011;14477;51.038;4.588;2024-01-10T10:25:28;6.90;;;3.85;;
26908;SDS011;14477;51.038;4.588;2024-01-10T10:27:57;5.60;;;3.50;;
26908;SDS011;14477;51.038;4.588;2024-01-10T10:30:23;7.60;;;4.18;;
26908;SDS011;14477;51.038;4.588;2024-01-10T10:32:49;7.28;;;4.05;;
26908;SDS011;14477;51.038;4.588;2024-01-10T10:35:15;7.40;;;4.10;;
26908;SDS011;14477;51.038;4.588;2024-01-10T10:37:43;5.70;;;2.90;;
26908;SDS011;14477;51.038;4.588;2024-01-10T10:40:09;6.70;;;3.70;;
26908;SDS011;14477;51.038;4.588;2024-01-10T10:42:36;6.90;;;3.70;;
26908;SDS011;14477;51.038;4.588;2024-01-10T10:45:08;6.80;;;3.97;;
26908;SDS011;14477;51.038;4.588;2024-01-10T10:47:37;6.50;;;3.80;;
26908;SDS011;14477;51.038;4.588;2024-01-10T10:50:08;6.18;;;3.55;;
26908;SDS011;14477;51.038;4.588;2024-01-10T10:52:39;6.40;;;3.80;;
26908;SDS011;14477;51.038;4.588;2024-01-10T10:55:09;7.65;;;4.47;;
26908;SDS011;14477;51.038;4.588;2024-01-10T10:57:37;7.30;;;3.90;;
26908;SDS011;14477;51.038;4.588;2024-01-10T11:00:05;6.97;;;4.17;;
26908;SDS011;14477;51.038;4.588;2024-01-10T11:02:32;6.53;;;3.95;;
26908;SDS011;14477;51.038;4.588;2024-01-10T11:04:58;6.07;;;3.25;;
26908;SDS011;14477;51.038;4.588;2024-01-10T11:07:26;6.82;;;4.05;;
26908;SDS011;14477;51.038;4.588;2024-01-10T11:09:52;7.70;;;4.40;;
26908;SDS011;14477;51.038;4.588;2024-01-10T11:18:06;7.55;;;4.30;;
26908;SDS011;14477;51.038;4.588;2024-01-10T11:23:49;7.10;;;4.20;;
26908;SDS011;14477;51.038;4.588;2024-01-10T11:26:18;7.85;;;4.25;;
26908;SDS011;14477;51.038;4.588;2024-01-10T11:28:45;7.82;;;3.95;;
26908;SDS011;14477;51.038;4.588;2024-01-10T11:31:12;6.18;;;3.70;;
26908;SDS011;14477;51.038;4.588;2024-01-10T11:33:40;7.90;;;4.03;;
26908;SDS011;14477;51.038;4.588;2024-01-10T11:38:39;6.65;;;3.78;;
26908;SDS011;14477;51.038;4.588;2024-01-10T11:41:07;8.20;;;4.10;;
26908;SDS011;14477;51.038;4.588;2024-01-10T11:43:36;5.78;;;3.42;;
26908;SDS011;14477;51.038;4.588;2024-01-10T11:46:02;5.82;;;3.45;;
26908;SDS011;14477;51.038;4.588;2024-01-10T11:48:30;6.53;;;3.60;;
26908;SDS011;14477;51.038;4.588;2024-01-10T11:50:57;5.93;;;3.38;;
26908;SDS011;14477;51.038;4.588;2024-01-10T11:53:39;8.60;;;4.72;;
26908;SDS011;14477;51.038;4.588;2024-01-10T11:56:13;9.48;;;4.55;;
26908;SDS011;14477;51.038;4.588;2024-01-10T12:01:30;6.27;;;3.57;;
26908;SDS011;14477;51.038;4.588;2024-01-10T12:03:57;6.88;;;3.92;;
26908;SDS011;14477;51.038;4.588;2024-01-10T12:06:23;6.43;;;3.90;;
26908;SDS011;14477;51.038;4.588;2024-01-10T12:08:50;8.38;;;4.65;;
26908;SDS011;14477;51.038;4.588;2024-01-10T12:11:16;7.83;;;4.20;;
26908;SDS011;14477;51.038;4.588;2024-01-10T12:13:43;8.38;;;4.40;;
26908;SDS011;14477;51.038;4.588;2024-01-10T12:16:10;8.27;;;4.80;;
26908;SDS011;14477;51.038;4.588;2024-01-10T12:18:38;8.65;;;4.03;;
26908;SDS011;14477;51.038;4.588;2024-01-10T12:21:03;8.10;;;4.20;;
26908;SDS011;14477;51.038;4.588;2024-01-10T12:23:30;9.43;;;4.65;;
26908;SDS011;14477;51.038;4.588;2024-01-10T12:25:57;9.27;;;4.60;;
26908;SDS011;14477;51.038;4.588;2024-01-10T12:28:26;8.43;;;4.40;;
26908;SDS011;14477;51.038;4.588;2024-01-10T12:30:52;9.10;;;4.77;;
26908;SDS011;14477;51.038;4.588;2024-01-10T12:33:18;10.63;;;5.03;;
26908;SDS011;14477;51.038;4.588;2024-01-10T12:36:01;10.80;;;4.78;;
26908;SDS011;14477;51.038;4.588;2024-01-10T12:38:30;10.45;;;5.78;;
26908;SDS011;14477;51.038;4.588;2024-01-10T12:40:57;10.02;;;4.88;;
26908;SDS011;14477;51.038;4.588;2024-01-10T12:43:23;8.13;;;4.33;;
26908;SDS011;14477;51.038;4.588;2024-01-10T12:46:06;9.73;;;4.75;;
26908;SDS011;14477;51.038;4.588;2024-01-10T12:48:33;11.20;;;5.68;;
26908;SDS011;14477;51.038;4.588;2024-01-10T12:51:05;11.50;;;5.82;;
26908;SDS011;14477;51.038;4.588;2024-01-10T12:53:36;11.07;;;4.60;;
26908;SDS011;14477;51.038;4.588;2024-01-10T12:56:03;8.32;;;4.60;;
26908;SDS011;14477;51.038;4.588;2024-01-10T12:58:30;13.75;;;6.00;;
26908;SDS011;14477;51.038;4.588;2024-01-10T13:00:57;8.52;;;4.45;;
26908;SDS011;14477;51.038;4.588;2024-01-10T13:03:23;9.27;;;4.77;;
26908;SDS011;14477;51.038;4.588;2024-01-10T13:05:49;9.88;;;5.32;;
26908;SDS011;14477;51.038;4.588;2024-01-10T13:08:18;9.43;;;4.85;;
26908;SDS011;14477;51.038;4.588;2024-01-10T13:10:45;8.80;;;4.70;;
26908;SDS011;14477;51.038;4.588;2024-01-10T13:13:12;9.15;;;4.90;;
26908;SDS011;14477;51.038;4.588;2024-01-10T13:15:38;9.37;;;4.40;;
26908;SDS011;14477;51.038;4.588;2024-01-10T13:18:04;9.38;;;4.78;;
26908;SDS011;14477;51.038;4.588;2024-01-10T13:20:30;9.93;;;5.05;;
26908;SDS011;14477;51.038;4.588;2024-01-10T13:22:55;9.83;;;4.80;;
26908;SDS011;14477;51.038;4.588;2024-01-10T13:25:21;9.55;;;4.93;;
26908;SDS011;14477;51.038;4.588;2024-01-10T13:27:51;9.73;;;4.60;;
26908;SDS011;14477;51.038;4.588;2024-01-10T13:30:17;10.10;;;4.90;;
26908;SDS011;14477;51.038;4.588;2024-01-10T13:32:43;9.68;;;4.72;;
26908;SDS011;14477;51.038;4.588;2024-01-10T13:35:09;10.00;;;4.50;;
26908;SDS011;14477;51.038;4.588;2024-01-10T13:37:35;8.67;;;4.23;;
26908;SDS011;14477;51.038;4.588;2024-01-10T13:40:02;8.07;;;4.00;;
26908;SDS011;14477;51.038;4.588;2024-01-10T13:42:30;8.68;;;4.00;;
26908;SDS011;14477;51.038;4.588;2024-01-10T13:44:58;8.93;;;4.20;;
26908;SDS011;14477;51.038;4.588;2024-01-10T13:47:23;8.87;;;4.17;;
26908;SDS011;14477;51.038;4.588;2024-01-10T13:49:49;8.98;;;4.40;;
26908;SDS011;14477;51.038;4.588;2024-01-10T13:52:14;7.73;;;4.13;;
26908;SDS011;14477;51.038;4.588;2024-01-10T13:54:40;8.57;;;4.45;;
26908;SDS011;14477;51.038;4.588;2024-01-10T13:57:07;7.82;;;4.22;;
26908;SDS011;14477;51.038;4.588;2024-01-10T13:59:33;10.50;;;4.63;;
26908;SDS011;14477;51.038;4.588;2024-01-10T14:01:59;7.88;;;4.38;;
26908;SDS011;14477;51.038;4.588;2024-01-10T14:04:25;6.87;;;3.50;;
26908;SDS011;14477;51.038;4.588;2024-01-10T14:06:50;9.77;;;4.55;;
26908;SDS011;14477;51.038;4.588;2024-01-10T14:09:16;8.60;;;4.67;;
26908;SDS011;14477;51.038;4.588;2024-01-10T14:11:43;10.10;;;4.60;;
26908;SDS011;14477;51.038;4.588;2024-01-10T14:14:13;8.70;;;4.35;;
26908;SDS011;14477;51.038;4.588;2024-01-10T14:16:39;7.78;;;3.75;;
26908;SDS011;14477;51.038;4.588;2024-01-10T14:19:06;10.10;;;4.47;;
26908;SDS011;14477;51.038;4.588;2024-01-10T14:21:31;11.00;;;4.40;;
26908;SDS011;14477;51.038;4.588;2024-01-10T14:23:57;7.27;;;3.50;;
26908;SDS011;14477;51.038;4.588;2024-01-10T14:26:23;10.38;;;4.90;;
26908;SDS011;14477;51.038;4.588;2024-01-10T14:28:51;8.90;;;5.15;;
26908;SDS011;14477;51.038;4.588;2024-01-10T14:31:20;10.93;;;4.90;;
26908;SDS011;14477;51.038;4.588;2024-01-10T14:33:48;12.77;;;5.50;;
26908;SDS011;14477;51.038;4.588;2024-01-10T14:36:14;9.30;;;4.70;;
26908;SDS011;14477;51.038;4.588;2024-01-10T14:38:40;11.30;;;5.03;;
26908;SDS011;14477;51.038;4.588;2024-01-10T14:41:09;10.18;;;4.40;;
26908;SDS011;14477;51.038;4.588;2024-01-10T14:43:37;10.40;;;4.60;;
26908;SDS011;14477;51.038;4.588;2024-01-10T14:46:04;10.53;;;4.60;;
26908;SDS011;14477;51.038;4.588;2024-01-10T14:48:30;10.23;;;4.45;;
26908;SDS011;14477;51.038;4.588;2024-01-10T14:50:56;9.15;;;4.25;;
26908;SDS011;14477;51.038;4.588;2024-01-10T14:53:22;9.15;;;3.78;;
26908;SDS011;14477;51.038;4.588;2024-01-10T14:55:49;8.47;;;4.30;;
26908;SDS011;14477;51.038;4.588;2024-01-10T14:58:15;10.18;;;4.25;;
26908;SDS011;14477;51.038;4.588;2024-01-10T15:00:40;9.43;;;4.50;;
26908;SDS011;14477;51.038;4.588;2024-01-10T15:03:08;8.70;;;4.00;;